Time;durP1;ratioP1;P1;durP2;ratioP2;P2;SDS_P1;SDS_P2;PMS_P1;PMS_P2;Temp;Humidity;BMP_temperature;BMP_pressure;BME280_temperature;BME280_humidity;BME280_pressure;Samples;Min_cycle;Max_cycle;Signal;HPM_P1;HPM_P2
2023/01/28 00:04:20;;;;;;;11.73;6.97;;;;;;;;;;10343245;28;20547;-47
2023/01/28 00:09:21;;;;;;;8.77;6.55;;;;;;;;;;10354288;28;20030;-50
2023/01/28 00:14:21;;;;;;;9.95;6.95;;;;;;;;;;10342207;28;20069;-47
2023/01/28 00:19:22;;;;;;;12.52;6.93;;;;;;;;;;10326214;28;20029;-48
2023/01/28 00:24:23;;;;;;;10.85;6.78;;;;;;;;;;10333293;28;20425;-46
2023/01/28 00:29:24;;;;;;;9.93;6.95;;;;;;;;;;10333416;28;20026;-48
2023/01/28 00:34:25;;;;;;;12.50;7.45;;;;;;;;;;10332257;28;20042;-50
2023/01/28 00:39:26;;;;;;;11.93;7.95;;;;;;;;;;10333057;28;20089;-49
2023/01/28 00:44:27;;;;;;;11.30;7.90;;;;;;;;;;10331440;28;20113;-48
2023/01/28 00:49:27;;;;;;;12.18;7.18;;;;;;;;;;10332181;28;20061;-47
2023/01/28 00:54:28;;;;;;;12.15;8.02;;;;;;;;;;10331302;28;20418;-46
2023/01/28 00:59:28;;;;;;;21.17;7.38;;;;;;;;;;10345394;28;20018;-46
2023/01/28 01:04:34;;;;;;;11.60;7.15;;;;;;;;;;10340185;28;20030;-47
2023/01/28 01:09:34;;;;;;;11.02;7.47;;;;;;;;;;10335663;28;20092;-47
2023/01/28 01:14:35;;;;;;;11.90;7.07;;;;;;;;;;10352498;28;20025;-47
2023/01/28 01:19:36;;;;;;;9.48;6.60;;;;;;;;;;10356742;28;20141;-49
2023/01/28 01:24:36;;;;;;;9.45;6.35;;;;;;;;;;10346186;28;20105;-47
2023/01/28 01:29:38;;;;;;;10.52;6.85;;;;;;;;;;10354379;28;20034;-46
2023/01/28 01:34:38;;;;;;;8.70;6.47;;;;;;;;;;10353692;28;20113;-47
2023/01/28 01:39:39;;;;;;;12.77;6.93;;;;;;;;;;10350697;28;20044;-46
2023/01/28 01:45:12;;;;;;;8.93;6.72;;;;;;;;;;10344993;28;20025;-46
2023/01/28 01:50:36;;;;;;;8.55;6.57;;;;;;;;;;10331861;28;20056;-47
2023/01/28 01:55:40;;;;;;;11.23;6.93;;;;;;;;;;10323525;28;20033;-49
2023/01/28 02:00:41;;;;;;;10.70;6.28;;;;;;;;;;10350841;28;20038;-46
2023/01/28 02:05:42;;;;;;;10.10;6.22;;;;;;;;;;10351453;28;20026;-46
2023/01/28 02:10:44;;;;;;;8.20;6.07;;;;;;;;;;10352636;28;20034;-47
2023/01/28 02:15:46;;;;;;;9.90;6.45;;;;;;;;;;10325943;28;20061;-46
2023/01/28 02:21:18;;;;;;;9.07;6.43;;;;;;;;;;10348483;28;20563;-47
2023/01/28 02:26:43;;;;;;;8.52;6.28;;;;;;;;;;10332122;28;20033;-46
2023/01/28 02:31:58;;;;;;;9.93;6.40;;;;;;;;;;10348795;28;20073;-46
2023/01/28 02:37:25;;;;;;;9.23;5.60;;;;;;;;;;10346904;28;20498;-45
2023/01/28 02:42:31;;;;;;;9.25;5.88;;;;;;;;;;10342300;28;20408;-48
2023/01/28 02:53:39;;;;;;;9.23;5.65;;;;;;;;;;10341590;28;20061;-47
2023/01/28 03:04:32;;;;;;;7.68;5.53;;;;;;;;;;10307822;28;20436;-46
2023/01/28 03:09:36;;;;;;;6.63;5.30;;;;;;;;;;10341460;28;20018;-48
2023/01/28 03:41:30;;;;;;;8.55;5.60;;;;;;;;;;10325715;28;20065;-48
2023/01/28 03:46:31;;;;;;;7.53;5.35;;;;;;;;;;10352708;28;20486;-48
2023/01/28 03:51:31;;;;;;;6.35;4.75;;;;;;;;;;10345432;28;20478;-49
2023/01/28 03:56:36;;;;;;;6.78;5.32;;;;;;;;;;10370128;28;20488;-47
2023/01/28 04:01:36;;;;;;;7.43;5.40;;;;;;;;;;10341694;28;20034;-49
2023/01/28 04:06:37;;;;;;;6.53;4.85;;;;;;;;;;10331922;28;20437;-49
2023/01/28 04:11:38;;;;;;;9.80;5.20;;;;;;;;;;10331521;28;20403;-48
2023/01/28 04:16:38;;;;;;;6.07;5.10;;;;;;;;;;10331106;28;20026;-48
2023/01/28 04:21:39;;;;;;;6.68;5.03;;;;;;;;;;10332515;28;20061;-47
2023/01/28 04:26:39;;;;;;;7.03;4.93;;;;;;;;;;10331986;28;20027;-50
2023/01/28 04:31:40;;;;;;;7.85;5.20;;;;;;;;;;10331701;28;20036;-48
2023/01/28 04:36:41;;;;;;;6.22;5.22;;;;;;;;;;10329778;28;20069;-49
2023/01/28 04:41:42;;;;;;;5.82;4.63;;;;;;;;;;10330246;28;20453;-53
2023/01/28 04:46:42;;;;;;;6.43;4.80;;;;;;;;;;10329233;28;20030;-49
2023/01/28 04:51:43;;;;;;;6.68;4.85;;;;;;;;;;10329994;28;20553;-47
2023/01/28 04:56:43;;;;;;;7.45;4.68;;;;;;;;;;10336007;28;20038;-49
2023/01/28 05:01:44;;;;;;;6.47;4.78;;;;;;;;;;10345845;28;20041;-49
2023/01/28 05:06:44;;;;;;;7.20;4.53;;;;;;;;;;10346396;28;20037;-50
2023/01/28 05:11:45;;;;;;;6.18;4.57;;;;;;;;;;10329702;28;20038;-48
2023/01/28 05:16:46;;;;;;;6.20;4.75;;;;;;;;;;10329070;28;20061;-48
2023/01/28 05:21:46;;;;;;;5.30;4.47;;;;;;;;;;10328204;28;20034;-48
2023/01/28 05:26:47;;;;;;;7.07;4.45;;;;;;;;;;10330574;28;20114;-50
2023/01/28 05:31:48;;;;;;;6.57;4.32;;;;;;;;;;10328485;28;20378;-60
2023/01/28 05:36:48;;;;;;;6.63;4.63;;;;;;;;;;10329073;28;20063;-48
2023/01/28 05:41:49;;;;;;;6.95;4.70;;;;;;;;;;10329144;28;20069;-57
2023/01/28 05:46:49;;;;;;;5.32;4.05;;;;;;;;;;10327482;28;20030;-51
2023/01/28 05:51:50;;;;;;;4.97;4.18;;;;;;;;;;10328495;28;20034;-49
2023/01/28 05:56:50;;;;;;;5.57;4.38;;;;;;;;;;10327657;28;20034;-51
2023/01/28 06:01:51;;;;;;;5.72;4.18;;;;;;;;;;10328726;28;20046;-48
2023/01/28 06:06:52;;;;;;;6.50;4.18;;;;;;;;;;10326218;28;20108;-48
2023/01/28 06:11:52;;;;;;;4.22;3.80;;;;;;;;;;10328022;28;20081;-48
2023/01/28 06:16:53;;;;;;;5.40;4.07;;;;;;;;;;10327068;28;20076;-46
2023/01/28 06:21:53;;;;;;;5.13;4.18;;;;;;;;;;10327710;28;20049;-48
2023/01/28 06:26:54;;;;;;;7.20;4.80;;;;;;;;;;10327361;28;20522;-48
2023/01/28 06:31:55;;;;;;;4.88;4.10;;;;;;;;;;10337156;28;20032;-48
2023/01/28 06:36:55;;;;;;;4.95;3.85;;;;;;;;;;10339611;28;20146;-47
2023/01/28 06:41:56;;;;;;;5.40;4.07;;;;;;;;;;10326265;28;20045;-47
2023/01/28 06:46:56;;;;;;;6.45;3.63;;;;;;;;;;10325708;28;20034;-47
2023/01/28 06:51:57;;;;;;;5.97;3.92;;;;;;;;;;10321013;28;20042;-47
2023/01/28 06:56:58;;;;;;;5.85;3.42;;;;;;;;;;10325940;28;20509;-46
2023/01/28 07:01:58;;;;;;;5.70;3.97;;;;;;;;;;10321838;28;20485;-51
2023/01/28 07:06:59;;;;;;;5.38;4.18;;;;;;;;;;10313003;28;20096;-46
2023/01/28 07:12:04;;;;;;;6.15;4.03;;;;;;;;;;10319083;28;20063;-46
2023/01/28 07:17:04;;;;;;;6.22;4.35;;;;;;;;;;10321072;28;20486;-48
2023/01/28 07:22:05;;;;;;;5.95;3.72;;;;;;;;;;10304099;28;20026;-52
2023/01/28 07:27:05;;;;;;;5.95;4.07;;;;;;;;;;10320137;28;20049;-47
2023/01/28 07:32:06;;;;;;;5.30;3.80;;;;;;;;;;10324096;28;20030;-48
2023/01/28 07:37:06;;;;;;;7.55;4.05;;;;;;;;;;10324341;28;20458;-47
2023/01/28 07:42:07;;;;;;;4.95;3.78;;;;;;;;;;10326213;28;20030;-46
2023/01/28 07:47:09;;;;;;;4.53;3.75;;;;;;;;;;10321949;28;20034;-47
2023/01/28 07:52:11;;;;;;;4.70;4.00;;;;;;;;;;10324122;28;20046;-48
2023/01/28 07:57:11;;;;;;;4.68;3.90;;;;;;;;;;10322382;28;20038;-47
2023/01/28 08:02:12;;;;;;;5.68;3.70;;;;;;;;;;10322750;28;20097;-47
2023/01/28 08:07:12;;;;;;;4.20;3.55;;;;;;;;;;10321908;28;20037;-47
2023/01/28 08:12:13;;;;;;;4.35;3.47;;;;;;;;;;10326382;28;20096;-46
2023/01/28 08:17:14;;;;;;;5.70;3.80;;;;;;;;;;10325342;28;20034;-46
2023/01/28 08:22:14;;;;;;;5.00;3.88;;;;;;;;;;10333491;28;20033;-48
2023/01/28 08:27:15;;;;;;;4.22;3.38;;;;;;;;;;10331233;28;20038;-46
2023/01/28 08:32:15;;;;;;;3.90;3.50;;;;;;;;;;10330965;28;20034;-47
2023/01/28 08:37:16;;;;;;;3.92;3.53;;;;;;;;;;10330245;28;20058;-46
2023/01/28 08:42:16;;;;;;;4.80;3.60;;;;;;;;;;10329950;28;20073;-47
2023/01/28 08:47:17;;;;;;;5.00;3.97;;;;;;;;;;10321987;28;20033;-47
2023/01/28 08:52:18;;;;;;;4.78;3.47;;;;;;;;;;10329865;28;20041;-46
2023/01/28 08:57:18;;;;;;;5.22;3.50;;;;;;;;;;10330629;28;20069;-50
2023/01/28 09:02:19;;;;;;;3.97;3.58;;;;;;;;;;10330577;28;20026;-48
2023/01/28 09:07:19;;;;;;;4.38;3.42;;;;;;;;;;10330473;28;20033;-46
2023/01/28 09:12:20;;;;;;;4.30;3.33;;;;;;;;;;10326859;28;20034;-46
2023/01/28 09:17:21;;;;;;;4.25;3.22;;;;;;;;;;10326151;28;20250;-45
2023/01/28 09:22:22;;;;;;;3.72;3.40;;;;;;;;;;10327586;28;20041;-47
2023/01/28 09:27:22;;;;;;;12.32;4.68;;;;;;;;;;10329676;28;20041;-46
2023/01/28 09:32:23;;;;;;;10.45;5.72;;;;;;;;;;10329626;28;20057;-50
2023/01/28 09:37:24;;;;;;;18.15;6.35;;;;;;;;;;10327901;28;20151;-47
2023/01/28 09:42:52;;;;;;;14.23;5.40;;;;;;;;;;10320466;28;20038;-46
2023/01/28 09:47:59;;;;;;;13.97;5.63;;;;;;;;;;10327096;28;20030;-49
2023/01/28 09:53:15;;;;;;;18.92;5.85;;;;;;;;;;10293426;28;20034;-47
2023/01/28 09:58:16;;;;;;;22.73;7.38;;;;;;;;;;10329250;28;20030;-48
2023/01/28 10:03:53;;;;;;;20.92;6.85;;;;;;;;;;10332733;28;20018;-47
2023/01/28 10:09:41;;;;;;;20.23;6.05;;;;;;;;;;10323615;28;20165;-46
2023/01/28 10:15:20;;;;;;;19.37;6.00;;;;;;;;;;10307684;28;20149;-50
2023/01/28 10:20:31;;;;;;;19.67;5.65;;;;;;;;;;10321298;28;20030;-50
2023/01/28 10:25:33;;;;;;;21.45;5.70;;;;;;;;;;10309329;28;20409;-47
2023/01/28 10:30:37;;;;;;;20.27;6.00;;;;;;;;;;10310137;28;20046;-52
2023/01/28 10:35:41;;;;;;;12.63;5.80;;;;;;;;;;10331187;23;20129;-59
2023/01/28 10:40:43;;;;;;;10.65;5.70;;;;;;;;;;10364965;28;20025;-60
2023/01/28 10:46:15;;;;;;;10.73;5.80;;;;;;;;;;10350071;28;20052;-58
2023/01/28 10:51:17;;;;;;;10.23;5.07;;;;;;;;;;10355023;28;20037;-62
2023/01/28 10:56:26;;;;;;;16.58;6.15;;;;;;;;;;10355459;28;20053;-62
2023/01/28 11:01:52;;;;;;;12.10;5.75;;;;;;;;;;10370016;28;20042;-58
2023/01/28 11:07:03;;;;;;;15.10;5.65;;;;;;;;;;10385149;28;20036;-61
2023/01/28 11:12:30;;;;;;;16.52;6.40;;;;;;;;;;10358295;28;20042;-60
2023/01/28 11:17:36;;;;;;;9.18;5.47;;;;;;;;;;10362160;28;20040;-62
2023/01/28 11:22:44;;;;;;;8.93;5.25;;;;;;;;;;10364324;28;20029;-61
2023/01/28 11:27:50;;;;;;;9.63;5.00;;;;;;;;;;10364422;28;20437;-62
2023/01/28 11:33:13;;;;;;;8.70;5.18;;;;;;;;;;10363071;28;20464;-61
2023/01/28 11:38:19;;;;;;;12.73;5.35;;;;;;;;;;10351548;28;20039;-62
2023/01/28 11:43:25;;;;;;;9.20;5.63;;;;;;;;;;10363346;28;20613;-62
2023/01/28 11:49:19;;;;;;;7.47;4.70;;;;;;;;;;10355443;28;20034;-63
2023/01/28 11:54:44;;;;;;;13.60;5.43;;;;;;;;;;10356287;28;20044;-56
2023/01/28 12:00:34;;;;;;;8.70;4.15;;;;;;;;;;10368311;28;20049;-61
2023/01/28 12:06:16;;;;;;;10.20;5.30;;;;;;;;;;10360098;28;20088;-61
2023/01/28 12:12:12;;;;;;;10.48;5.85;;;;;;;;;;10319051;28;20379;-60
2023/01/28 12:17:41;;;;;;;7.30;4.57;;;;;;;;;;10361050;28;20380;-60
2023/01/28 12:23:04;;;;;;;12.20;5.22;;;;;;;;;;10364441;28;20118;-63
2023/01/28 12:28:29;;;;;;;7.25;4.78;;;;;;;;;;10349109;28;20669;-62
2023/01/28 12:34:10;;;;;;;18.45;5.85;;;;;;;;;;10369284;28;20033;-61
2023/01/28 12:39:36;;;;;;;11.00;5.28;;;;;;;;;;10367486;28;20061;-59
2023/01/28 12:44:45;;;;;;;8.23;5.43;;;;;;;;;;10367292;28;20026;-60
2023/01/28 12:49:59;;;;;;;7.13;5.70;;;;;;;;;;10369206;28;20034;-60
2023/01/28 12:55:17;;;;;;;7.43;5.00;;;;;;;;;;10363980;28;20053;-58
2023/01/28 13:00:23;;;;;;;13.00;5.00;;;;;;;;;;10353215;28;20498;-62
2023/01/28 13:05:33;;;;;;;7.20;4.82;;;;;;;;;;10356939;28;20026;-62
2023/01/28 13:10:43;;;;;;;6.82;4.90;;;;;;;;;;10342811;28;20037;-60
2023/01/28 13:15:45;;;;;;;11.30;5.10;;;;;;;;;;10349173;28;20033;-59
2023/01/28 13:20:50;;;;;;;12.38;6.28;;;;;;;;;;10366944;28;20517;-60
2023/01/28 13:25:54;;;;;;;14.65;5.97;;;;;;;;;;10359744;28;20029;-60
2023/01/28 13:31:18;;;;;;;17.48;6.50;;;;;;;;;;10356670;28;20473;-60
2023/01/28 13:36:35;;;;;;;14.18;6.72;;;;;;;;;;10360300;28;20130;-60
2023/01/28 13:41:49;;;;;;;24.55;8.00;;;;;;;;;;10361915;28;20105;-58
2023/01/28 13:46:58;;;;;;;19.60;7.13;;;;;;;;;;10371333;28;20022;-60
2023/01/28 13:52:10;;;;;;;17.40;7.32;;;;;;;;;;10363610;28;20037;-55
2023/01/28 13:57:55;;;;;;;25.58;9.32;;;;;;;;;;10336138;28;20493;-57
2023/01/28 14:03:14;;;;;;;29.65;12.07;;;;;;;;;;10360115;28;20096;-61
2023/01/28 14:08:54;;;;;;;47.45;15.73;;;;;;;;;;10356641;28;20228;-60
2023/01/28 14:14:28;;;;;;;49.97;17.70;;;;;;;;;;10358053;28;20045;-60
2023/01/28 14:19:33;;;;;;;51.63;18.33;;;;;;;;;;10350415;28;20105;-60
2023/01/28 14:24:37;;;;;;;66.25;20.88;;;;;;;;;;10368775;28;20065;-61
2023/01/28 14:29:51;;;;;;;69.97;23.50;;;;;;;;;;10366444;28;20110;-59
2023/01/28 14:34:53;;;;;;;72.55;23.27;;;;;;;;;;10352412;28;20045;-60
2023/01/28 14:40:03;;;;;;;48.28;15.88;;;;;;;;;;10360582;28;20030;-60
2023/01/28 14:45:18;;;;;;;55.53;18.42;;;;;;;;;;10329250;28;20033;-59
2023/01/28 14:50:56;;;;;;;64.68;21.90;;;;;;;;;;10365568;28;20030;-60
2023/01/28 14:56:19;;;;;;;56.22;17.90;;;;;;;;;;10354685;28;20359;-60
2023/01/28 15:01:44;;;;;;;62.10;22.08;;;;;;;;;;10359239;28;20022;-60
2023/01/28 15:06:45;;;;;;;56.05;20.17;;;;;;;;;;10366029;28;20033;-60
2023/01/28 15:11:51;;;;;;;62.70;20.02;;;;;;;;;;10334778;28;20609;-59
2023/01/28 15:16:52;;;;;;;61.95;21.27;;;;;;;;;;10349625;28;20107;-59
2023/01/28 15:22:02;;;;;;;59.42;19.52;;;;;;;;;;10349589;28;20033;-59
2023/01/28 15:27:03;;;;;;;54.03;19.92;;;;;;;;;;10342453;28;20037;-58
2023/01/28 15:32:05;;;;;;;62.08;21.00;;;;;;;;;;10365490;28;20034;-58
2023/01/28 15:37:09;;;;;;;53.60;18.65;;;;;;;;;;10366632;28;20061;-56
2023/01/28 15:42:37;;;;;;;55.08;19.17;;;;;;;;;;10348635;28;20383;-59
2023/01/28 15:47:37;;;;;;;48.23;18.07;;;;;;;;;;10354080;28;20089;-62
2023/01/28 15:52:41;;;;;;;48.08;17.95;;;;;;;;;;10342619;28;20497;-63
2023/01/28 15:57:41;;;;;;;45.03;16.33;;;;;;;;;;10360009;28;20021;-60
2023/01/28 16:02:54;;;;;;;49.40;17.77;;;;;;;;;;10366362;28;20018;-56
2023/01/28 16:07:56;;;;;;;39.60;14.98;;;;;;;;;;10362590;28;20029;-59
2023/01/28 16:13:19;;;;;;;45.03;15.98;;;;;;;;;;10358323;28;20025;-61
2023/01/28 16:18:37;;;;;;;44.13;16.00;;;;;;;;;;10347856;28;20071;-60
2023/01/28 16:23:39;;;;;;;42.40;15.57;;;;;;;;;;10343612;28;20026;-60
2023/01/28 16:28:39;;;;;;;41.28;14.75;;;;;;;;;;10364621;28;20363;-60
2023/01/28 16:33:40;;;;;;;47.85;15.35;;;;;;;;;;10364291;28;20034;-60
2023/01/28 16:38:41;;;;;;;41.72;14.07;;;;;;;;;;10360120;28;20042;-60
2023/01/28 16:43:41;;;;;;;31.50;10.27;;;;;;;;;;10368825;28;20065;-61
2023/01/28 16:48:42;;;;;;;29.25;9.75;;;;;;;;;;10372533;28;20025;-60
2023/01/28 16:53:46;;;;;;;26.35;9.25;;;;;;;;;;10368614;28;20030;-59
2023/01/28 16:58:46;;;;;;;22.67;9.00;;;;;;;;;;10364122;28;20574;-60
2023/01/28 17:03:47;;;;;;;21.67;8.93;;;;;;;;;;10367332;28;20352;-61
2023/01/28 17:08:48;;;;;;;26.15;8.88;;;;;;;;;;10369876;28;20025;-61
2023/01/28 17:13:48;;;;;;;30.50;8.60;;;;;;;;;;10359761;28;20033;-60
2023/01/28 17:18:53;;;;;;;20.55;7.93;;;;;;;;;;10365710;28;20401;-60
2023/01/28 17:23:53;;;;;;;18.58;8.05;;;;;;;;;;10365506;28;20025;-61
2023/01/28 17:28:55;;;;;;;27.50;8.77;;;;;;;;;;10365977;28;20022;-61
2023/01/28 17:33:57;;;;;;;20.38;8.10;;;;;;;;;;10357070;28;20034;-59
2023/01/28 17:38:58;;;;;;;18.05;8.32;;;;;;;;;;10377914;28;20122;-58
2023/01/28 17:43:58;;;;;;;20.83;7.55;;;;;;;;;;10372687;28;20068;-56
2023/01/28 17:49:01;;;;;;;15.95;8.40;;;;;;;;;;10351142;28;20030;-57
2023/01/28 17:54:02;;;;;;;25.60;8.48;;;;;;;;;;10368427;28;20060;-61
2023/01/28 17:59:04;;;;;;;32.25;10.35;;;;;;;;;;10363098;28;20108;-49
2023/01/28 18:04:05;;;;;;;37.22;9.15;;;;;;;;;;10368014;28;20038;-55
2023/01/28 18:09:06;;;;;;;27.40;9.30;;;;;;;;;;10362968;28;20126;-57
2023/01/28 18:14:06;;;;;;;26.63;8.10;;;;;;;;;;10358758;28;20405;-56
2023/01/28 18:19:09;;;;;;;27.80;7.97;;;;;;;;;;10366729;28;20033;-58
2023/01/28 18:24:09;;;;;;;24.05;8.55;;;;;;;;;;10366698;28;20032;-56
2023/01/28 18:29:15;;;;;;;20.30;8.10;;;;;;;;;;10368513;28;20025;-57
2023/01/28 18:34:17;;;;;;;19.40;7.85;;;;;;;;;;10367768;28;20038;-55
2023/01/28 18:39:19;;;;;;;24.90;7.45;;;;;;;;;;10357265;28;20046;-56
2023/01/28 18:44:21;;;;;;;21.13;7.30;;;;;;;;;;10350594;28;20132;-58
2023/01/28 18:49:22;;;;;;;23.58;6.97;;;;;;;;;;10358279;28;20037;-57
2023/01/28 18:54:23;;;;;;;19.48;7.30;;;;;;;;;;10366995;28;20113;-55
2023/01/28 18:59:24;;;;;;;16.13;6.75;;;;;;;;;;10366903;28;20033;-57
2023/01/28 19:04:25;;;;;;;18.20;6.93;;;;;;;;;;10365502;28;20359;-58
2023/01/28 19:09:25;;;;;;;16.70;6.82;;;;;;;;;;10367253;28;20029;-57
2023/01/28 19:14:26;;;;;;;16.55;6.82;;;;;;;;;;10363423;28;20042;-56
2023/01/28 19:19:26;;;;;;;13.90;7.05;;;;;;;;;;10366341;28;20034;-58
2023/01/28 19:24:27;;;;;;;14.93;6.18;;;;;;;;;;10359359;28;20030;-58
2023/01/28 19:29:28;;;;;;;15.43;6.75;;;;;;;;;;10363006;28;20033;-57
2023/01/28 19:34:28;;;;;;;16.17;6.82;;;;;;;;;;10352674;28;20061;-56
2023/01/28 19:39:31;;;;;;;17.60;6.88;;;;;;;;;;10347323;28;20026;-57
2023/01/28 19:44:32;;;;;;;21.55;7.90;;;;;;;;;;10349237;28;20030;-57
2023/01/28 19:49:33;;;;;;;25.80;8.63;;;;;;;;;;10348680;28;20437;-57
2023/01/28 19:54:34;;;;;;;16.92;6.30;;;;;;;;;;10349204;28;20042;-58
2023/01/28 19:59:35;;;;;;;19.70;7.25;;;;;;;;;;10355231;28;20030;-58
2023/01/28 20:04:35;;;;;;;13.15;6.70;;;;;;;;;;10357132;28;20378;-58
2023/01/28 20:09:36;;;;;;;18.08;6.40;;;;;;;;;;10354185;28;20034;-56
2023/01/28 20:14:37;;;;;;;18.88;6.18;;;;;;;;;;10363566;28;20141;-57
2023/01/28 20:19:37;;;;;;;16.38;6.55;;;;;;;;;;10371145;28;20045;-56
2023/01/28 20:24:38;;;;;;;17.95;6.47;;;;;;;;;;10372117;28;20030;-57
2023/01/28 20:29:38;;;;;;;13.48;6.22;;;;;;;;;;10370199;28;20087;-56
2023/01/28 20:34:39;;;;;;;11.93;6.50;;;;;;;;;;10370923;28;20026;-55
2023/01/28 20:39:40;;;;;;;13.60;6.10;;;;;;;;;;10372277;28;20022;-57
2023/01/28 20:44:40;;;;;;;14.38;6.28;;;;;;;;;;10365465;28;20030;-57
2023/01/28 20:49:41;;;;;;;16.20;6.05;;;;;;;;;;10345923;28;20475;-58
2023/01/28 20:54:42;;;;;;;14.70;5.43;;;;;;;;;;10343065;28;20034;-56
2023/01/28 20:59:42;;;;;;;14.30;6.20;;;;;;;;;;10355241;28;20030;-57
2023/01/28 21:04:43;;;;;;;15.32;5.88;;;;;;;;;;10354079;28;20153;-56
2023/01/28 21:09:43;;;;;;;13.52;6.22;;;;;;;;;;10364287;28;20097;-58
2023/01/28 21:14:44;;;;;;;10.95;5.68;;;;;;;;;;10364985;28;20045;-56
2023/01/28 21:19:44;;;;;;;12.05;6.65;;;;;;;;;;10370925;28;20022;-56
2023/01/28 21:24:47;;;;;;;8.35;5.45;;;;;;;;;;10370182;28;20046;-59
2023/01/28 21:29:48;;;;;;;9.95;5.28;;;;;;;;;;10370151;28;20584;-49
2023/01/28 21:34:48;;;;;;;12.32;6.20;;;;;;;;;;10370349;28;20057;-55
2023/01/28 21:39:49;;;;;;;12.50;5.35;;;;;;;;;;10370780;28;20037;-57
2023/01/28 21:44:49;;;;;;;8.27;5.45;;;;;;;;;;10368966;28;20034;-57
2023/01/28 21:49:50;;;;;;;10.15;5.45;;;;;;;;;;10369567;28;20041;-54
2023/01/28 21:54:51;;;;;;;12.98;5.70;;;;;;;;;;10370297;28;20044;-58
2023/01/28 21:59:51;;;;;;;10.73;5.75;;;;;;;;;;10364641;28;20030;-55
2023/01/28 22:04:52;;;;;;;9.90;5.32;;;;;;;;;;10368342;28;20462;-58
2023/01/28 22:09:53;;;;;;;8.88;5.80;;;;;;;;;;10357221;28;20486;-56
2023/01/28 22:14:53;;;;;;;11.57;5.38;;;;;;;;;;10363766;28;20559;-57
2023/01/28 22:19:54;;;;;;;10.82;5.60;;;;;;;;;;10358525;28;20489;-58
2023/01/28 22:24:54;;;;;;;10.57;5.40;;;;;;;;;;10367371;28;20034;-58
2023/01/28 22:29:56;;;;;;;10.13;6.07;;;;;;;;;;10368141;28;20037;-58
2023/01/28 22:34:58;;;;;;;14.23;6.75;;;;;;;;;;10366358;28;20046;-58
2023/01/28 22:39:59;;;;;;;11.55;6.82;;;;;;;;;;10367575;28;20260;-58
2023/01/28 22:45:00;;;;;;;11.88;7.07;;;;;;;;;;10365742;28;20282;-58
2023/01/28 22:50:00;;;;;;;11.98;6.60;;;;;;;;;;10366619;28;20018;-56
2023/01/28 22:55:01;;;;;;;12.05;6.07;;;;;;;;;;10367260;28;20040;-57
2023/01/28 23:00:10;;;;;;;9.80;5.97;;;;;;;;;;10363352;28;20054;-57
2023/01/28 23:05:11;;;;;;;8.68;6.28;;;;;;;;;;10349505;28;20140;-56
2023/01/28 23:10:11;;;;;;;9.45;5.72;;;;;;;;;;10355086;28;20059;-56
2023/01/28 23:25:50;;;;;;;16.95;6.45;;;;;;;;;;10367050;28;20109;-57
2023/01/28 23:30:52;;;;;;;8.80;5.82;;;;;;;;;;10366721;28;20444;-56
2023/01/28 23:35:52;;;;;;;12.82;6.60;;;;;;;;;;10366596;28;20049;-51
2023/01/28 23:40:53;;;;;;;9.30;6.43;;;;;;;;;;10366541;28;20074;-57
2023/01/28 23:45:54;;;;;;;12.13;6.68;;;;;;;;;;10367397;28;20076;-58
2023/01/28 23:50:55;;;;;;;9.88;6.55;;;;;;;;;;10372649;28;20032;-56
2023/01/28 23:55:55;;;;;;;9.23;6.15;;;;;;;;;;10374543;28;20026;-58
